Time;durP1;ratioP1;P1;durP2;ratioP2;P2;SDS_P1;SDS_P2;PMS_P1;PMS_P2;Temp;Humidity;BMP_temperature;BMP_pressure;BME280_temperature;BME280_humidity;BME280_pressure;Samples;Min_cycle;Max_cycle;Signal;HPM_P1;HPM_P2
2022/05/12 00:00:06;;;;;;;5.90;2.15;;;;;;;;;;5067772;28;20121;-75
2022/05/12 00:02:32;;;;;;;7.57;2.75;;;;;;;;;;5049177;28;20683;-74
2022/05/12 00:04:59;;;;;;;6.47;2.10;;;;;;;;;;5048444;28;20052;-75
2022/05/12 00:07:25;;;;;;;6.25;2.22;;;;;;;;;;5065845;28;20047;-75
2022/05/12 00:09:51;;;;;;;6.35;2.30;;;;;;;;;;5065354;28;20055;-74
2022/05/12 00:12:17;;;;;;;6.13;2.08;;;;;;;;;;5065066;28;20047;-75
2022/05/12 00:14:43;;;;;;;5.65;2.08;;;;;;;;;;5065324;28;20047;-75
2022/05/12 00:17:09;;;;;;;5.50;1.95;;;;;;;;;;5065956;28;20135;-74
2022/05/12 00:19:35;;;;;;;6.63;2.17;;;;;;;;;;5064115;28;20040;-75
2022/05/12 00:22:01;;;;;;;7.85;2.60;;;;;;;;;;5065638;28;20627;-75
2022/05/12 00:24:28;;;;;;;4.80;1.50;;;;;;;;;;5065287;28;20045;-75
2022/05/12 00:26:53;;;;;;;5.32;1.95;;;;;;;;;;5065995;28;20043;-74
2022/05/12 00:29:19;;;;;;;5.35;2.03;;;;;;;;;;5065321;28;20517;-75
2022/05/12 00:31:46;;;;;;;8.35;2.40;;;;;;;;;;5049056;28;20116;-74
2022/05/12 00:34:13;;;;;;;4.85;1.80;;;;;;;;;;5064234;28;20048;-74
2022/05/12 00:36:39;;;;;;;5.63;1.98;;;;;;;;;;5065788;28;20043;-74
2022/05/12 00:39:06;;;;;;;4.80;1.52;;;;;;;;;;5065098;28;20037;-75
2022/05/12 00:41:32;;;;;;;5.65;1.77;;;;;;;;;;5065585;28;20037;-74
2022/05/12 00:44:02;;;;;;;5.47;1.73;;;;;;;;;;5048489;28;20093;-75
2022/05/12 00:46:31;;;;;;;5.70;1.70;;;;;;;;;;5065366;28;20052;-75
2022/05/12 00:48:59;;;;;;;6.35;1.80;;;;;;;;;;5064879;28;20116;-74
2022/05/12 00:51:33;;;;;;;5.38;1.75;;;;;;;;;;5064752;28;20503;-74
2022/05/12 00:54:01;;;;;;;4.35;1.50;;;;;;;;;;5064938;28;20072;-74
2022/05/12 00:56:27;;;;;;;5.25;1.80;;;;;;;;;;5065558;28;20608;-74
2022/05/12 00:59:03;;;;;;;4.53;1.30;;;;;;;;;;5063937;28;20049;-75
2022/05/12 01:01:29;;;;;;;5.30;1.70;;;;;;;;;;5084195;28;20111;-75
2022/05/12 01:03:58;;;;;;;4.72;1.65;;;;;;;;;;5084646;28;20050;-75
2022/05/12 01:06:27;;;;;;;4.28;1.30;;;;;;;;;;5084649;28;20044;-75
2022/05/12 01:08:53;;;;;;;4.18;1.48;;;;;;;;;;5068546;28;20072;-75
2022/05/12 01:11:21;;;;;;;4.65;1.70;;;;;;;;;;5067901;28;20048;-75
2022/05/12 01:13:53;;;;;;;4.32;1.42;;;;;;;;;;5084974;28;20059;-75
2022/05/12 01:16:36;;;;;;;6.15;1.60;;;;;;;;;;5085087;28;20725;-75
2022/05/12 01:19:02;;;;;;;5.53;1.40;;;;;;;;;;5067213;28;20044;-75
2022/05/12 01:21:28;;;;;;;5.15;1.42;;;;;;;;;;5085000;28;20044;-75
2022/05/12 01:23:54;;;;;;;3.67;1.20;;;;;;;;;;5060165;28;20051;-74
2022/05/12 01:26:20;;;;;;;4.28;1.17;;;;;;;;;;5060254;28;20071;-74
2022/05/12 01:28:46;;;;;;;4.32;1.00;;;;;;;;;;5044148;28;20041;-74
2022/05/12 01:31:16;;;;;;;4.40;1.50;;;;;;;;;;5044780;28;20037;-75
2022/05/12 01:33:42;;;;;;;3.78;1.17;;;;;;;;;;5044105;28;20052;-75
2022/05/12 01:36:08;;;;;;;4.13;1.20;;;;;;;;;;5043938;28;20055;-74
2022/05/12 01:38:34;;;;;;;4.93;1.38;;;;;;;;;;5044512;28;20029;-74
2022/05/12 01:41:00;;;;;;;5.07;1.30;;;;;;;;;;5027685;28;20069;-74
2022/05/12 01:43:26;;;;;;;4.70;1.30;;;;;;;;;;5043999;28;20041;-75
2022/05/12 01:45:52;;;;;;;3.47;1.17;;;;;;;;;;5044185;28;20072;-74
2022/05/12 01:48:19;;;;;;;4.10;1.42;;;;;;;;;;5044898;28;20808;-74
2022/05/12 01:50:46;;;;;;;5.80;1.33;;;;;;;;;;5051350;28;20044;-74
2022/05/12 01:53:12;;;;;;;5.88;1.52;;;;;;;;;;5049858;28;20041;-75
2022/05/12 01:55:39;;;;;;;2.97;1.05;;;;;;;;;;5063468;28;20113;-74
2022/05/12 01:58:05;;;;;;;4.22;1.20;;;;;;;;;;5046743;28;20040;-75
2022/05/12 02:00:32;;;;;;;4.97;1.45;;;;;;;;;;5063721;28;20640;-74
2022/05/12 02:03:00;;;;;;;4.00;1.30;;;;;;;;;;5063828;28;20063;-74
2022/05/12 02:05:27;;;;;;;4.53;1.20;;;;;;;;;;5046631;28;20667;-74
2022/05/12 02:07:53;;;;;;;3.78;1.25;;;;;;;;;;5063858;28;20048;-74
2022/05/12 02:10:21;;;;;;;3.28;1.13;;;;;;;;;;5062650;28;20536;-75
2022/05/12 02:12:48;;;;;;;4.03;1.30;;;;;;;;;;5063216;28;20055;-74
2022/05/12 02:15:14;;;;;;;3.90;1.20;;;;;;;;;;5063006;28;20094;-75
2022/05/12 02:17:40;;;;;;;4.10;1.10;;;;;;;;;;5046906;28;20621;-75
2022/05/12 02:20:06;;;;;;;2.88;1.00;;;;;;;;;;5066669;28;20036;-74
2022/05/12 02:22:32;;;;;;;3.28;1.10;;;;;;;;;;5046363;28;20075;-75
2022/05/12 02:24:58;;;;;;;4.03;1.15;;;;;;;;;;5046279;28;20043;-74
2022/05/12 02:27:24;;;;;;;2.63;0.88;;;;;;;;;;5063108;28;20668;-74
2022/05/12 02:29:50;;;;;;;3.75;1.20;;;;;;;;;;5046258;28;20041;-74
2022/05/12 02:32:16;;;;;;;4.00;1.27;;;;;;;;;;5063339;28;20041;-75
2022/05/12 02:34:42;;;;;;;3.20;1.10;;;;;;;;;;5061703;28;20139;-74
2022/05/12 02:37:09;;;;;;;2.78;1.10;;;;;;;;;;5063028;28;20036;-75
2022/05/12 02:39:37;;;;;;;4.93;1.40;;;;;;;;;;5062947;28;20396;-75
2022/05/12 02:42:06;;;;;;;3.53;1.05;;;;;;;;;;5062893;28;20032;-74
2022/05/12 02:44:33;;;;;;;2.33;0.95;;;;;;;;;;5046542;28;20052;-75
2022/05/12 02:46:59;;;;;;;5.55;1.20;;;;;;;;;;5063017;28;20048;-74
2022/05/12 02:49:25;;;;;;;4.05;1.20;;;;;;;;;;5035601;28;20053;-75
2022/05/12 02:51:51;;;;;;;2.90;0.98;;;;;;;;;;5042741;28;20064;-74
2022/05/12 02:54:18;;;;;;;4.20;1.10;;;;;;;;;;5043108;28;20145;-75
2022/05/12 02:56:45;;;;;;;3.63;1.00;;;;;;;;;;5026375;28;20506;-74
2022/05/12 02:59:11;;;;;;;2.83;1.00;;;;;;;;;;5045323;28;20044;-74
2022/05/12 03:01:37;;;;;;;2.90;0.93;;;;;;;;;;5041998;28;20033;-75
2022/05/12 03:04:03;;;;;;;4.20;1.05;;;;;;;;;;5062394;28;20786;-75
2022/05/12 03:06:29;;;;;;;4.68;1.10;;;;;;;;;;5062740;28;20045;-74
2022/05/12 03:08:55;;;;;;;2.88;1.00;;;;;;;;;;5062798;28;20048;-74
2022/05/12 03:11:21;;;;;;;3.85;1.10;;;;;;;;;;5062745;28;20055;-75
2022/05/12 03:13:51;;;;;;;3.20;0.95;;;;;;;;;;5062706;28;20678;-75
2022/05/12 03:16:18;;;;;;;3.28;0.98;;;;;;;;;;5062532;28;20101;-75
2022/05/12 03:18:46;;;;;;;3.33;1.20;;;;;;;;;;5062457;28;20063;-75
2022/05/12 03:21:13;;;;;;;4.25;1.20;;;;;;;;;;5061977;28;20051;-75
2022/05/12 03:23:40;;;;;;;3.90;1.00;;;;;;;;;;5062836;28;20045;-75
2022/05/12 03:26:06;;;;;;;3.17;1.00;;;;;;;;;;5062889;28;20060;-75
2022/05/12 03:28:33;;;;;;;2.83;0.80;;;;;;;;;;5028994;28;20110;-74
2022/05/12 03:30:59;;;;;;;2.88;0.93;;;;;;;;;;5025842;28;20041;-75
2022/05/12 03:33:25;;;;;;;3.28;1.00;;;;;;;;;;5042119;28;20061;-75
2022/05/12 03:35:52;;;;;;;3.05;0.98;;;;;;;;;;5042065;28;20052;-75
2022/05/12 03:38:19;;;;;;;3.70;1.13;;;;;;;;;;5025736;28;20045;-75
2022/05/12 03:40:44;;;;;;;3.65;1.30;;;;;;;;;;5025688;28;20103;-75
2022/05/12 03:43:10;;;;;;;3.33;0.90;;;;;;;;;;5064304;28;20589;-76
2022/05/12 03:45:37;;;;;;;4.97;0.98;;;;;;;;;;5082728;28;20036;-75
2022/05/12 03:48:04;;;;;;;2.80;0.77;;;;;;;;;;5081729;28;20118;-74
2022/05/12 03:50:30;;;;;;;4.13;1.00;;;;;;;;;;5045806;28;20036;-74
2022/05/12 03:52:56;;;;;;;2.63;0.95;;;;;;;;;;5061135;28;20037;-75
2022/05/12 03:55:24;;;;;;;3.88;1.10;;;;;;;;;;5061002;28;20044;-74
2022/05/12 03:57:51;;;;;;;2.28;0.82;;;;;;;;;;5061354;28;20127;-74
2022/05/12 04:00:20;;;;;;;3.13;0.90;;;;;;;;;;5078273;28;20036;-74
2022/05/12 04:02:46;;;;;;;2.45;0.75;;;;;;;;;;5082145;28;20047;-74
2022/05/12 04:05:12;;;;;;;3.45;0.90;;;;;;;;;;5082076;28;20068;-74
2022/05/12 04:07:43;;;;;;;3.50;0.93;;;;;;;;;;5081895;28;20048;-74
2022/05/12 04:10:09;;;;;;;4.30;1.05;;;;;;;;;;5065426;28;20040;-74
2022/05/12 04:12:35;;;;;;;3.38;1.00;;;;;;;;;;5065306;28;20385;-74
2022/05/12 04:15:01;;;;;;;3.28;1.10;;;;;;;;;;5064542;28;20043;-74
2022/05/12 04:17:27;;;;;;;4.15;1.02;;;;;;;;;;5064416;28;20609;-74
2022/05/12 04:19:53;;;;;;;2.63;0.93;;;;;;;;;;5060419;28;20571;-74
2022/05/12 04:22:19;;;;;;;2.97;0.82;;;;;;;;;;5061984;28;20040;-74
2022/05/12 04:24:46;;;;;;;3.30;0.95;;;;;;;;;;5044943;28;20051;-74
2022/05/12 04:27:12;;;;;;;3.17;1.00;;;;;;;;;;5061748;28;20067;-74
2022/05/12 04:29:40;;;;;;;2.50;0.90;;;;;;;;;;5061535;28;20358;-74
2022/05/12 04:32:06;;;;;;;3.85;1.25;;;;;;;;;;5062981;28;20613;-74
2022/05/12 04:37:18;;;;;;;3.60;0.90;;;;;;;;;;5065482;28;20525;-74
2022/05/12 04:39:44;;;;;;;3.75;0.88;;;;;;;;;;5048395;28;20040;-74
2022/05/12 04:42:10;;;;;;;3.08;1.05;;;;;;;;;;5065100;28;20705;-75
2022/05/12 04:44:36;;;;;;;3.22;1.05;;;;;;;;;;5048038;28;20045;-74
2022/05/12 04:47:02;;;;;;;3.08;0.85;;;;;;;;;;5066689;28;20428;-75
2022/05/12 04:49:28;;;;;;;2.67;0.90;;;;;;;;;;5064504;28;20036;-74
2022/05/12 04:51:57;;;;;;;4.60;0.98;;;;;;;;;;5066457;28;20040;-74
2022/05/12 04:54:23;;;;;;;2.47;0.98;;;;;;;;;;5048256;28;20464;-75
2022/05/12 04:56:49;;;;;;;3.92;1.10;;;;;;;;;;5064772;28;20047;-74
2022/05/12 04:59:14;;;;;;;3.05;0.90;;;;;;;;;;5064271;28;20529;-75
2022/05/12 05:01:40;;;;;;;2.55;0.77;;;;;;;;;;5065131;28;20040;-75
2022/05/12 05:04:07;;;;;;;4.50;1.02;;;;;;;;;;5046802;28;20127;-76
2022/05/12 05:06:33;;;;;;;2.85;1.10;;;;;;;;;;5065064;28;20036;-75
2022/05/12 05:08:59;;;;;;;2.70;1.00;;;;;;;;;;5064474;28;20062;-74
2022/05/12 05:11:25;;;;;;;5.95;1.33;;;;;;;;;;5048186;28;20046;-75
2022/05/12 05:13:51;;;;;;;6.32;1.02;;;;;;;;;;5064330;28;20120;-75
2022/05/12 05:16:18;;;;;;;3.88;1.00;;;;;;;;;;5064540;28;20037;-76
2022/05/12 05:18:45;;;;;;;3.35;1.02;;;;;;;;;;5063096;28;20073;-76
2022/05/12 05:21:11;;;;;;;4.00;1.20;;;;;;;;;;5064309;28;20509;-75
2022/05/12 05:23:40;;;;;;;6.72;0.90;;;;;;;;;;5063448;28;20067;-74
2022/05/12 05:26:08;;;;;;;4.78;1.10;;;;;;;;;;5064684;28;20036;-74
2022/05/12 05:28:34;;;;;;;4.07;1.20;;;;;;;;;;5048621;28;20755;-74
2022/05/12 05:31:00;;;;;;;8.30;1.33;;;;;;;;;;5063824;28;20676;-74
2022/05/12 05:33:26;;;;;;;5.60;1.30;;;;;;;;;;5067080;28;20644;-75
2022/05/12 05:35:52;;;;;;;3.42;1.05;;;;;;;;;;5067855;28;20056;-73
2022/05/12 05:38:18;;;;;;;5.38;1.30;;;;;;;;;;5064064;28;20044;-74
2022/05/12 05:40:44;;;;;;;8.93;1.80;;;;;;;;;;5047170;28;20094;-73
2022/05/12 05:43:10;;;;;;;7.28;1.77;;;;;;;;;;5046841;28;20170;-74
2022/05/12 05:45:36;;;;;;;6.75;1.92;;;;;;;;;;5046777;28;20049;-74
2022/05/12 05:48:04;;;;;;;5.88;1.70;;;;;;;;;;5046666;28;20071;-74
2022/05/12 05:53:28;;;;;;;5.10;1.58;;;;;;;;;;5077117;28;20119;-74
2022/05/12 05:55:56;;;;;;;5.28;1.35;;;;;;;;;;5083595;28;20051;-74
2022/05/12 05:58:23;;;;;;;5.97;1.67;;;;;;;;;;5083401;28;20067;-74
2022/05/12 06:00:49;;;;;;;6.90;1.85;;;;;;;;;;5083202;28;20119;-73
2022/05/12 06:03:15;;;;;;;14.60;2.10;;;;;;;;;;5077341;28;20040;-74
2022/05/12 06:05:41;;;;;;;9.70;1.90;;;;;;;;;;5041196;28;20041;-74
2022/05/12 06:08:10;;;;;;;9.60;2.00;;;;;;;;;;5048818;28;20120;-74
2022/05/12 06:10:36;;;;;;;7.72;1.88;;;;;;;;;;5043552;28;20143;-75
2022/05/12 06:13:03;;;;;;;7.15;1.85;;;;;;;;;;5043144;28;20094;-74
2022/05/12 06:15:29;;;;;;;7.85;2.05;;;;;;;;;;5043312;28;20642;-73
2022/05/12 06:17:55;;;;;;;11.02;2.60;;;;;;;;;;5043477;28;20048;-74
2022/05/12 06:20:22;;;;;;;10.07;1.98;;;;;;;;;;5054121;28;20044;-74
2022/05/12 06:22:48;;;;;;;8.30;1.77;;;;;;;;;;5046556;28;20032;-74
2022/05/12 06:25:16;;;;;;;6.78;1.85;;;;;;;;;;5046037;28;20048;-74
2022/05/12 06:27:42;;;;;;;5.93;1.65;;;;;;;;;;5063310;28;20044;-74
2022/05/12 06:30:11;;;;;;;7.80;1.63;;;;;;;;;;5046278;28;20032;-75
2022/05/12 06:32:38;;;;;;;5.20;1.67;;;;;;;;;;5062980;28;20074;-74
2022/05/12 06:35:04;;;;;;;4.57;1.75;;;;;;;;;;5061228;28;20387;-74
2022/05/12 06:37:30;;;;;;;5.88;1.60;;;;;;;;;;5061598;28;20048;-74
2022/05/12 06:39:56;;;;;;;6.13;1.50;;;;;;;;;;5061281;28;20066;-75
2022/05/12 06:42:22;;;;;;;5.20;1.38;;;;;;;;;;5061304;28;20520;-74
2022/05/12 06:44:48;;;;;;;4.22;1.48;;;;;;;;;;5062036;28;20051;-74
2022/05/12 06:47:15;;;;;;;5.70;1.50;;;;;;;;;;5045965;28;20044;-74
2022/05/12 06:49:41;;;;;;;4.85;1.77;;;;;;;;;;5045649;28;20643;-74
2022/05/12 06:52:08;;;;;;;4.88;1.40;;;;;;;;;;5062670;28;20102;-75
2022/05/12 06:54:34;;;;;;;6.70;1.42;;;;;;;;;;5045391;28;20048;-74
2022/05/12 06:57:01;;;;;;;4.30;1.35;;;;;;;;;;5062608;28;20444;-75
2022/05/12 06:59:27;;;;;;;5.70;1.33;;;;;;;;;;5062347;28;20070;-74
2022/05/12 07:01:53;;;;;;;5.30;1.60;;;;;;;;;;5062349;28;20470;-75
2022/05/12 07:04:19;;;;;;;5.70;1.73;;;;;;;;;;5062071;28;20144;-74
2022/05/12 07:06:45;;;;;;;3.97;1.52;;;;;;;;;;5062560;28;20048;-74
2022/05/12 07:09:11;;;;;;;5.65;1.58;;;;;;;;;;5062420;28;20094;-74
2022/05/12 07:11:37;;;;;;;6.88;1.73;;;;;;;;;;5062268;28;20036;-74
2022/05/12 07:14:03;;;;;;;4.25;1.40;;;;;;;;;;5061903;28;20048;-74
2022/05/12 07:16:29;;;;;;;3.80;1.30;;;;;;;;;;5062432;28;20109;-74
2022/05/12 07:18:55;;;;;;;5.45;1.45;;;;;;;;;;5061933;28;20044;-75
2022/05/12 07:26:52;;;;;;;4.78;1.60;;;;;;;;;;5062295;28;20044;-75
2022/05/12 07:29:24;;;;;;;5.18;1.42;;;;;;;;;;5061551;28;20094;-74
2022/05/12 07:31:50;;;;;;;6.00;1.75;;;;;;;;;;5062042;28;20052;-75
2022/05/12 07:34:17;;;;;;;5.55;1.35;;;;;;;;;;5060493;28;20084;-75
2022/05/12 07:36:44;;;;;;;6.35;1.48;;;;;;;;;;5062622;28;20052;-75
2022/05/12 07:39:12;;;;;;;5.30;1.50;;;;;;;;;;5044949;28;20052;-75
2022/05/12 07:41:41;;;;;;;4.13;1.35;;;;;;;;;;5061762;28;20498;-75
2022/05/12 07:44:07;;;;;;;5.00;1.63;;;;;;;;;;5061528;28;20052;-74
2022/05/12 07:46:33;;;;;;;4.47;1.35;;;;;;;;;;5061946;28;20048;-74
2022/05/12 07:48:59;;;;;;;4.70;1.50;;;;;;;;;;5062589;28;20048;-75
2022/05/12 07:51:25;;;;;;;4.53;1.25;;;;;;;;;;5061952;28;20610;-75
2022/05/12 07:53:52;;;;;;;4.72;1.23;;;;;;;;;;5062119;28;20127;-75
2022/05/12 07:56:20;;;;;;;5.32;1.52;;;;;;;;;;5061888;28;20036;-74
2022/05/12 07:58:46;;;;;;;5.47;1.33;;;;;;;;;;5061775;28;20231;-75
2022/05/12 08:01:13;;;;;;;3.95;1.20;;;;;;;;;;5062162;28;20713;-75
2022/05/12 08:03:44;;;;;;;5.93;1.65;;;;;;;;;;5079156;28;20079;-75
2022/05/12 08:06:10;;;;;;;6.07;1.40;;;;;;;;;;5081675;28;20051;-75
2022/05/12 08:08:36;;;;;;;4.15;1.23;;;;;;;;;;5083421;28;20599;-75
2022/05/12 08:11:02;;;;;;;2.95;1.02;;;;;;;;;;5086292;28;20492;-75
2022/05/12 08:13:28;;;;;;;3.83;1.40;;;;;;;;;;5085527;28;20051;-74
2022/05/12 08:15:55;;;;;;;6.03;1.48;;;;;;;;;;5085803;28;20067;-74
2022/05/12 08:18:21;;;;;;;4.93;1.48;;;;;;;;;;5086012;28;20458;-74
2022/05/12 08:20:48;;;;;;;6.43;1.30;;;;;;;;;;5085061;28;20150;-74
2022/05/12 08:23:14;;;;;;;4.13;1.30;;;;;;;;;;5085575;28;20086;-75
2022/05/12 08:25:42;;;;;;;5.40;1.50;;;;;;;;;;5085744;28;20046;-75
2022/05/12 08:28:08;;;;;;;4.10;1.40;;;;;;;;;;5078515;28;20420;-75
2022/05/12 08:30:34;;;;;;;5.25;1.45;;;;;;;;;;5085653;28;20055;-75
2022/05/12 08:33:00;;;;;;;5.55;1.30;;;;;;;;;;5068276;28;20048;-74
2022/05/12 08:35:27;;;;;;;3.88;1.10;;;;;;;;;;5068294;28;20093;-75
2022/05/12 08:37:53;;;;;;;4.50;1.30;;;;;;;;;;5085158;28;20575;-75
2022/05/12 08:40:33;;;;;;;4.05;1.33;;;;;;;;;;5055301;28;20097;-75
2022/05/12 08:43:20;;;;;;;4.82;1.50;;;;;;;;;;5065073;28;20055;-75
2022/05/12 08:45:47;;;;;;;3.40;1.08;;;;;;;;;;5064540;28;20036;-74
2022/05/12 08:48:13;;;;;;;5.07;1.40;;;;;;;;;;5064469;28;20106;-74
2022/05/12 08:50:40;;;;;;;3.28;1.10;;;;;;;;;;5064619;28;20524;-75
2022/05/12 08:53:11;;;;;;;5.57;1.15;;;;;;;;;;5064448;28;20048;-75
2022/05/12 08:55:53;;;;;;;3.78;1.20;;;;;;;;;;5065656;28;20048;-75
2022/05/12 08:58:39;;;;;;;5.05;1.27;;;;;;;;;;5066341;28;20127;-74
2022/05/12 09:01:10;;;;;;;4.53;1.30;;;;;;;;;;5083058;28;20040;-74
2022/05/12 09:03:51;;;;;;;4.38;1.58;;;;;;;;;;5083848;28;20071;-75
2022/05/12 09:06:22;;;;;;;5.20;1.20;;;;;;;;;;5084531;28;20572;-74
2022/05/12 09:09:01;;;;;;;5.10;1.10;;;;;;;;;;5084476;28;20069;-75
2022/05/12 09:11:47;;;;;;;3.38;0.90;;;;;;;;;;5084948;28;20041;-75
2022/05/12 09:14:18;;;;;;;3.65;1.17;;;;;;;;;;5067336;28;20654;-74
2022/05/12 09:16:46;;;;;;;4.38;1.27;;;;;;;;;;5084935;28;20040;-75
2022/05/12 09:19:14;;;;;;;3.47;1.23;;;;;;;;;;5083801;28;20040;-75
2022/05/12 09:21:40;;;;;;;5.50;1.35;;;;;;;;;;5084770;28;20068;-75
2022/05/12 09:24:07;;;;;;;7.68;1.50;;;;;;;;;;5084725;28;20075;-75
2022/05/12 09:26:33;;;;;;;4.53;1.13;;;;;;;;;;5084567;28;20050;-75
2022/05/12 09:29:20;;;;;;;2.78;1.00;;;;;;;;;;5067027;28;20075;-74
2022/05/12 09:32:06;;;;;;;4.95;1.23;;;;;;;;;;5084580;28;20094;-75
2022/05/12 09:34:33;;;;;;;4.32;1.20;;;;;;;;;;5082331;28;20087;-75
2022/05/12 09:37:18;;;;;;;3.45;1.15;;;;;;;;;;5067413;28;20032;-75
2022/05/12 09:40:03;;;;;;;5.57;1.30;;;;;;;;;;5067716;28;20110;-75
2022/05/12 09:42:29;;;;;;;5.25;1.40;;;;;;;;;;5084477;28;20074;-74
2022/05/12 09:44:57;;;;;;;5.03;1.63;;;;;;;;;;5067332;28;20073;-75
2022/05/12 09:47:24;;;;;;;4.57;1.40;;;;;;;;;;5084188;28;20044;-75
2022/05/12 09:49:51;;;;;;;5.03;1.23;;;;;;;;;;5083300;28;20094;-75
2022/05/12 09:52:37;;;;;;;5.13;1.35;;;;;;;;;;5083705;28;20044;-75
2022/05/12 09:55:15;;;;;;;3.83;1.48;;;;;;;;;;5060405;28;20745;-75
2022/05/12 09:57:46;;;;;;;4.55;1.38;;;;;;;;;;5063400;28;20032;-75
2022/05/12 10:00:24;;;;;;;4.72;1.25;;;;;;;;;;5063815;28;20047;-75
2022/05/12 10:08:26;;;;;;;4.70;1.38;;;;;;;;;;5063679;28;20048;-75
2022/05/12 10:10:59;;;;;;;3.70;1.23;;;;;;;;;;5063854;28;20072;-75
2022/05/12 10:13:32;;;;;;;3.17;1.10;;;;;;;;;;5046705;28;20036;-75
2022/05/12 10:15:59;;;;;;;3.03;1.00;;;;;;;;;;5063660;28;20048;-76
2022/05/12 10:18:40;;;;;;;3.22;1.10;;;;;;;;;;5063240;28;20036;-75
2022/05/12 10:21:09;;;;;;;5.15;1.30;;;;;;;;;;5062871;28;20065;-75
2022/05/12 10:23:38;;;;;;;3.88;1.40;;;;;;;;;;5063378;28;20037;-75
2022/05/12 10:26:39;;;;;;;4.40;1.20;;;;;;;;;;5063155;28;20101;-75
2022/05/12 10:29:09;;;;;;;4.22;1.20;;;;;;;;;;5021791;28;20167;-75
2022/05/12 10:31:42;;;;;;;4.35;1.10;;;;;;;;;;5035563;28;20041;-75
2022/05/12 10:34:08;;;;;;;4.68;1.30;;;;;;;;;;5042497;28;20128;-75
2022/05/12 10:36:34;;;;;;;4.80;1.30;;;;;;;;;;5043251;28;20157;-75
2022/05/12 10:39:18;;;;;;;4.45;1.27;;;;;;;;;;5043230;28;20032;-75
2022/05/12 10:41:47;;;;;;;5.65;1.40;;;;;;;;;;5043497;28;20048;-75
2022/05/12 10:44:36;;;;;;;4.35;1.50;;;;;;;;;;5026230;28;20049;-76
2022/05/12 10:47:12;;;;;;;3.97;1.20;;;;;;;;;;5024311;28;20056;-75
2022/05/12 10:49:41;;;;;;;4.05;1.35;;;;;;;;;;5042803;28;20041;-75
2022/05/12 10:52:13;;;;;;;4.93;1.15;;;;;;;;;;5042812;28;20084;-75
2022/05/12 10:54:58;;;;;;;4.95;1.50;;;;;;;;;;5043775;28;20052;-76
2022/05/12 10:57:24;;;;;;;3.60;1.27;;;;;;;;;;5062459;28;20724;-76
2022/05/12 10:59:53;;;;;;;5.88;1.17;;;;;;;;;;5062510;28;20044;-76
2022/05/12 11:02:28;;;;;;;4.18;1.30;;;;;;;;;;5045727;28;20123;-75
2022/05/12 11:04:56;;;;;;;4.78;1.45;;;;;;;;;;5058411;28;20048;-75
2022/05/12 11:07:34;;;;;;;4.30;1.20;;;;;;;;;;5082923;28;20535;-76
2022/05/12 11:10:00;;;;;;;3.10;1.05;;;;;;;;;;5075408;28;20079;-75
2022/05/12 11:12:47;;;;;;;3.75;1.20;;;;;;;;;;5062723;28;20616;-76
2022/05/12 11:15:27;;;;;;;2.95;1.20;;;;;;;;;;5045925;28;20098;-75
2022/05/12 11:17:57;;;;;;;4.03;1.10;;;;;;;;;;5062899;28;20119;-76
2022/05/12 11:20:36;;;;;;;4.18;1.35;;;;;;;;;;5045071;28;20048;-75
2022/05/12 11:23:18;;;;;;;3.75;1.20;;;;;;;;;;5045925;28;20036;-77
2022/05/12 11:25:44;;;;;;;4.80;1.23;;;;;;;;;;5062472;28;20083;-75
2022/05/12 11:31:08;;;;;;;3.72;1.17;;;;;;;;;;5042613;28;20041;-75
2022/05/12 11:33:38;;;;;;;5.25;1.20;;;;;;;;;;5042402;28;20606;-76
2022/05/12 11:36:04;;;;;;;5.75;1.65;;;;;;;;;;5042041;28;20688;-77
2022/05/12 11:38:39;;;;;;;6.70;1.60;;;;;;;;;;5042572;28;20041;-76
2022/05/12 11:41:27;;;;;;;4.07;1.40;;;;;;;;;;5042732;28;20048;-76
2022/05/12 11:46:58;;;;;;;2.60;1.00;;;;;;;;;;5046681;28;20433;-76
2022/05/12 11:49:27;;;;;;;4.20;1.10;;;;;;;;;;5045906;28;20051;-77
2022/05/12 11:52:12;;;;;;;3.30;1.23;;;;;;;;;;5046665;28;20076;-77
2022/05/12 11:54:39;;;;;;;4.22;1.40;;;;;;;;;;5046278;28;20577;-77
2022/05/12 11:57:20;;;;;;;4.38;1.23;;;;;;;;;;5030204;28;20048;-76
2022/05/12 11:59:47;;;;;;;5.28;1.50;;;;;;;;;;5045777;28;20037;-75
2022/05/12 12:02:28;;;;;;;4.45;1.30;;;;;;;;;;5046046;28;20048;-76
2022/05/12 12:04:55;;;;;;;5.43;1.30;;;;;;;;;;5044802;28;20072;-76
2022/05/12 12:07:35;;;;;;;3.63;1.30;;;;;;;;;;5046380;28;20526;-75
2022/05/12 12:10:20;;;;;;;4.53;1.40;;;;;;;;;;5029582;28;20041;-75
2022/05/12 12:12:47;;;;;;;3.10;1.10;;;;;;;;;;5045963;28;20128;-75
2022/05/12 12:15:30;;;;;;;4.97;1.70;;;;;;;;;;5045343;28;20080;-75
2022/05/12 12:17:56;;;;;;;4.38;1.30;;;;;;;;;;5045710;28;20490;-75
2022/05/12 12:20:22;;;;;;;3.55;1.20;;;;;;;;;;5083436;28;20123;-75
2022/05/12 12:22:49;;;;;;;4.38;1.20;;;;;;;;;;5071404;28;20601;-75
2022/05/12 12:25:29;;;;;;;4.38;1.15;;;;;;;;;;5065736;28;20072;-75
2022/05/12 12:27:55;;;;;;;4.40;1.30;;;;;;;;;;5048501;28;20048;-75
2022/05/12 12:30:34;;;;;;;3.55;1.10;;;;;;;;;;5065677;28;20055;-76
2022/05/12 12:33:09;;;;;;;4.60;1.40;;;;;;;;;;5048165;28;20139;-75
2022/05/12 12:35:56;;;;;;;3.72;1.30;;;;;;;;;;5064337;28;20049;-76
2022/05/12 12:38:41;;;;;;;3.72;1.30;;;;;;;;;;5064615;28;20083;-76
2022/05/12 12:41:07;;;;;;;4.93;1.42;;;;;;;;;;5048595;28;20593;-76
2022/05/12 12:43:38;;;;;;;4.20;1.30;;;;;;;;;;5044791;28;20064;-75
2022/05/12 12:46:15;;;;;;;4.10;1.20;;;;;;;;;;5064678;28;20072;-76
2022/05/12 12:48:46;;;;;;;4.28;1.35;;;;;;;;;;5064786;28;20039;-75
2022/05/12 12:51:12;;;;;;;6.07;1.65;;;;;;;;;;5064621;28;20037;-75
2022/05/12 12:56:34;;;;;;;7.63;1.60;;;;;;;;;;5058946;28;20032;-75
2022/05/12 12:59:21;;;;;;;5.65;1.30;;;;;;;;;;5060426;28;20033;-76
2022/05/12 13:01:51;;;;;;;5.00;1.63;;;;;;;;;;5056557;28;20047;-76
2022/05/12 13:04:22;;;;;;;9.05;2.00;;;;;;;;;;5055772;28;20032;-76
2022/05/12 13:06:49;;;;;;;10.43;2.40;;;;;;;;;;5058172;28;20040;-76
2022/05/12 13:09:16;;;;;;;12.68;2.90;;;;;;;;;;5060646;28;20044;-76
2022/05/12 13:11:43;;;;;;;14.25;2.78;;;;;;;;;;5049512;28;20636;-75
2022/05/12 13:14:11;;;;;;;11.30;3.30;;;;;;;;;;5061153;28;20052;-75
2022/05/12 13:16:40;;;;;;;12.45;2.60;;;;;;;;;;5046096;28;20444;-76
2022/05/12 13:19:07;;;;;;;8.95;2.78;;;;;;;;;;5046687;28;20036;-75
2022/05/12 13:21:52;;;;;;;11.10;2.40;;;;;;;;;;5064203;28;20106;-75
2022/05/12 13:24:28;;;;;;;15.85;2.63;;;;;;;;;;5064173;28;20431;-76
2022/05/12 13:26:56;;;;;;;8.10;2.35;;;;;;;;;;5064210;28;20044;-76
2022/05/12 13:29:24;;;;;;;10.48;2.70;;;;;;;;;;5063663;28;20045;-76
2022/05/12 13:32:00;;;;;;;9.98;3.03;;;;;;;;;;5059299;28;20037;-76
2022/05/12 13:34:30;;;;;;;8.23;2.75;;;;;;;;;;5056400;28;20064;-76
2022/05/12 13:36:58;;;;;;;8.57;2.58;;;;;;;;;;5063232;28;20047;-76
2022/05/12 13:39:48;;;;;;;6.40;2.45;;;;;;;;;;5058188;28;20041;-76
2022/05/12 13:42:16;;;;;;;9.88;2.80;;;;;;;;;;5057749;28;20052;-76
2022/05/12 13:44:42;;;;;;;8.43;3.00;;;;;;;;;;5059660;28;20042;-76
2022/05/12 13:47:08;;;;;;;5.80;2.10;;;;;;;;;;5057191;28;20048;-76
2022/05/12 13:49:35;;;;;;;7.65;2.53;;;;;;;;;;5021692;28;20044;-76
2022/05/12 13:52:15;;;;;;;6.88;2.83;;;;;;;;;;5041978;28;20052;-76
2022/05/12 13:54:59;;;;;;;9.63;2.38;;;;;;;;;;5043645;28;20588;-75
2022/05/12 13:57:25;;;;;;;8.43;2.72;;;;;;;;;;5026709;28;20071;-76
2022/05/12 13:59:51;;;;;;;7.32;2.50;;;;;;;;;;5043851;28;20136;-75
2022/05/12 14:02:19;;;;;;;7.80;2.75;;;;;;;;;;5043536;28;20040;-76
2022/05/12 14:04:45;;;;;;;6.70;2.42;;;;;;;;;;5063054;28;20087;-76
2022/05/12 14:07:12;;;;;;;10.07;2.60;;;;;;;;;;5058177;28;20044;-75
2022/05/12 14:09:53;;;;;;;8.50;2.75;;;;;;;;;;5043985;28;20076;-76
2022/05/12 14:12:24;;;;;;;6.57;2.35;;;;;;;;;;5060067;28;20040;-76
2022/05/12 14:20:29;;;;;;;7.07;2.45;;;;;;;;;;5056764;28;20647;-76
2022/05/12 14:22:55;;;;;;;7.38;2.55;;;;;;;;;;5055132;28;20040;-76
2022/05/12 14:25:23;;;;;;;8.68;2.47;;;;;;;;;;5046470;28;20040;-76
2022/05/12 14:27:49;;;;;;;6.20;2.30;;;;;;;;;;5062285;28;20075;-76
2022/05/12 14:30:15;;;;;;;5.55;2.03;;;;;;;;;;5066262;28;20044;-77
2022/05/12 14:32:44;;;;;;;6.00;2.30;;;;;;;;;;5079769;28;20048;-76
2022/05/12 14:35:12;;;;;;;5.93;2.42;;;;;;;;;;5048801;28;20199;-76
2022/05/12 14:37:39;;;;;;;6.90;2.60;;;;;;;;;;5061021;28;20123;-75
2022/05/12 14:40:06;;;;;;;7.65;2.33;;;;;;;;;;5041513;28;20548;-76
2022/05/12 14:42:32;;;;;;;6.93;2.25;;;;;;;;;;5059370;28;20041;-75
2022/05/12 14:44:58;;;;;;;6.60;2.28;;;;;;;;;;5062856;28;20051;-76
2022/05/12 14:47:27;;;;;;;7.40;2.20;;;;;;;;;;5033514;28;20041;-76
2022/05/12 14:49:53;;;;;;;6.55;2.33;;;;;;;;;;5053802;28;20514;-76
2022/05/12 14:52:24;;;;;;;5.70;2.40;;;;;;;;;;5060692;28;20079;-76
2022/05/12 14:54:51;;;;;;;6.38;2.38;;;;;;;;;;5043737;28;20084;-75
2022/05/12 14:57:17;;;;;;;6.65;2.20;;;;;;;;;;5042067;28;20040;-75
2022/05/12 14:59:44;;;;;;;6.65;2.20;;;;;;;;;;5047063;28;20092;-76
2022/05/12 15:02:11;;;;;;;5.28;2.10;;;;;;;;;;5053735;28;20036;-75
2022/05/12 15:04:38;;;;;;;5.82;2.15;;;;;;;;;;5061515;28;20098;-75
2022/05/12 15:07:04;;;;;;;7.65;2.47;;;;;;;;;;5062478;28;20055;-76
2022/05/12 15:09:30;;;;;;;6.45;2.30;;;;;;;;;;5058653;28;20039;-75
2022/05/12 15:11:56;;;;;;;6.70;2.38;;;;;;;;;;5054029;28;20409;-75
2022/05/12 15:14:22;;;;;;;5.97;2.38;;;;;;;;;;5045040;28;20039;-75
2022/05/12 15:16:48;;;;;;;6.40;2.40;;;;;;;;;;5062267;28;20060;-76
2022/05/12 15:19:14;;;;;;;6.53;2.17;;;;;;;;;;5045164;28;20040;-76
2022/05/12 15:21:41;;;;;;;5.95;2.00;;;;;;;;;;5062265;28;20701;-76
2022/05/12 15:24:08;;;;;;;6.88;2.20;;;;;;;;;;5045828;28;20048;-74